Time;durP1;ratioP1;P1;durP2;ratioP2;P2;SDS_P1;SDS_P2;PMS_P1;PMS_P2;Temp;Humidity;BMP_temperature;BMP_pressure;BME280_temperature;BME280_humidity;BME280_pressure;Samples;Min_cycle;Max_cycle;Signal;HPM_P1;HPM_P2
2022/02/21 00:00:24;;;;;;;0.40;0.20;;;8.40;1.40;;;8.94;90.58;94583.69;649830;212;31642;-75
2022/02/21 00:03:06;;;;;;;0.40;0.23;;;8.40;1.40;;;8.94;90.38;94591.91;645839;216;31644;-75
2022/02/21 00:05:47;;;;;;;0.50;0.20;;;8.50;1.40;;;8.91;91.13;94585.86;647367;216;31521;-75
2022/02/21 00:08:29;;;;;;;0.40;0.27;;;8.40;1.40;;;8.95;91.18;94553.38;636001;216;31813;-75
2022/02/21 00:11:14;;;;;;;0.40;0.20;;;8.40;1.40;;;9.06;90.42;94546.41;619702;226;31929;-75
2022/02/21 00:13:57;;;;;;;0.60;0.30;;;8.60;1.40;;;8.95;91.68;94546.20;621470;226;31853;-78
2022/02/21 00:16:37;;;;;;;0.40;0.20;;;8.50;1.40;;;9.06;90.86;94548.95;649376;216;31519;-76
2022/02/21 00:19:25;;;;;;;0.40;0.20;;;8.50;1.40;;;8.99;91.38;94545.59;646016;212;31497;-79
2022/02/21 00:22:07;;;;;;;0.40;0.20;;;8.50;1.40;;;9.03;91.21;94552.17;649299;216;31480;-78
2022/02/21 00:24:51;;;;;;;0.40;0.30;;;8.60;1.40;;;8.98;91.55;94509.61;619349;226;31921;-74
2022/02/21 00:27:35;;;;;;;0.40;0.30;;;8.50;1.40;;;8.89;92.49;94517.81;644598;216;32132;-78
2022/02/21 00:30:17;;;;;;;0.40;0.22;;;8.40;1.40;;;8.93;91.75;94499.77;648444;216;31481;-79
2022/02/21 00:33:01;;;;;;;0.40;0.20;;;8.40;1.40;;;9.02;90.52;94478.88;647658;216;31479;-78
2022/02/21 00:35:51;;;;;;;0.50;0.20;;;8.50;1.40;;;8.88;91.91;94489.73;647654;216;31502;-75
2022/02/21 00:38:33;;;;;;;1.00;0.20;;;8.30;1.40;;;8.90;91.74;94514.06;647743;212;31561;-77
2022/02/21 00:41:21;;;;;;;0.40;0.30;;;8.50;1.40;;;9.09;88.88;94497.44;648826;216;31789;-76
2022/02/21 00:44:03;;;;;;;0.40;0.25;;;8.70;1.40;;;9.00;90.13;94504.26;650149;216;31705;-77
2022/02/21 00:46:50;;;;;;;0.40;0.20;;;8.50;1.40;;;9.18;87.66;94507.77;647586;216;32002;-78
2022/02/21 00:49:38;;;;;;;0.40;0.20;;;8.80;1.40;;;9.11;88.13;94503.28;649497;216;31557;-75
2022/02/21 00:52:25;;;;;;;0.40;0.20;;;8.70;1.40;;;9.10;88.23;94481.38;651000;212;31566;-80
2022/02/21 00:55:08;;;;;;;0.40;0.20;;;8.60;1.40;;;9.16;87.93;94480.14;645856;216;31474;-78
2022/02/21 00:57:49;;;;;;;0.60;0.30;;;8.60;1.40;;;9.16;87.46;94447.60;648971;216;31700;-79
2022/02/21 01:00:31;;;;;;;0.40;0.20;;;8.70;1.40;;;9.25;86.12;94452.42;646839;216;31563;-78
2022/02/21 01:03:13;;;;;;;0.40;0.20;;;8.80;1.40;;;9.32;85.32;94438.11;618457;226;31821;-76
2022/02/21 01:05:55;;;;;;;1.10;0.30;;;8.90;1.40;;;9.16;87.16;94436.56;649106;216;31681;-78
2022/02/21 01:08:36;;;;;;;1.00;0.30;;;8.60;1.40;;;9.36;85.48;94439.88;652607;212;31535;-79
2022/02/21 01:11:20;;;;;;;0.50;0.20;;;8.80;1.40;;;9.42;84.18;94444.05;649234;212;31506;-78
2022/02/21 01:14:00;;;;;;;0.40;0.28;;;9.00;1.40;;;9.44;84.44;94410.66;647482;216;31488;-78
2022/02/21 01:16:47;;;;;;;0.40;0.30;;;8.90;1.40;;;9.40;84.51;94409.70;647624;212;31537;-77
2022/02/21 01:19:36;;;;;;;0.40;0.20;;;9.00;1.40;;;9.42;84.44;94427.22;644809;216;31491;-75
2022/02/21 01:22:23;;;;;;;0.40;0.30;;;8.90;1.40;;;9.40;84.21;94426.70;618670;222;31819;-77
2022/02/21 01:25:05;;;;;;;0.40;0.20;;;9.00;1.40;;;9.38;84.18;94418.63;648088;216;31483;-77
2022/02/21 01:27:47;;;;;;;0.50;0.30;;;8.90;1.40;;;9.30;85.14;94414.16;654457;216;31695;-75
2022/02/21 01:30:35;;;;;;;0.40;0.30;;;8.80;1.40;;;9.31;84.93;94416.58;647471;212;31609;-77
2022/02/21 01:35:51;;;;;;;0.40;0.20;;;8.80;1.40;;;9.44;84.01;94407.78;651874;216;32067;-77
2022/02/21 01:38:33;;;;;;;0.40;0.20;;;8.90;1.40;;;9.46;83.30;94381.92;647598;216;32004;-78
2022/02/21 01:41:15;;;;;;;0.60;0.30;;;8.90;1.40;;;9.53;82.21;94382.54;620894;226;31849;-78
2022/02/21 01:46:34;;;;;;;0.40;0.30;;;8.90;1.40;;;9.36;84.16;94391.40;645253;216;31592;-77
2022/02/21 01:49:16;;;;;;;0.40;0.20;;;8.80;1.40;;;9.34;84.29;94363.45;646211;216;31476;-77
2022/02/21 01:52:04;;;;;;;0.40;0.20;;;8.80;1.40;;;9.41;83.40;94384.19;649650;216;32057;-78
2022/02/21 01:54:52;;;;;;;1.50;0.30;;;8.90;1.40;;;9.53;82.25;94376.44;648797;216;31424;-76
2022/02/21 01:57:33;;;;;;;0.40;0.30;;;9.10;1.40;;;9.53;82.22;94336.44;647775;216;31686;-76
2022/02/21 02:00:21;;;;;;;0.40;0.30;;;9.00;1.40;;;9.41;83.72;94326.20;645072;216;31479;-74
2022/02/21 02:03:09;;;;;;;0.40;0.30;;;8.80;1.40;;;9.35;83.85;94310.08;651512;216;31548;-77
2022/02/21 02:05:51;;;;;;;0.70;0.30;;;8.80;1.40;;;9.41;82.98;94303.32;652465;212;42115;-77
2022/02/21 02:08:33;;;;;;;0.40;0.40;;;9.00;1.40;;;9.38;83.29;94305.63;646449;216;31595;-77
2022/02/21 02:11:14;;;;;;;0.40;0.30;;;8.90;1.40;;;9.32;83.63;94284.95;649342;216;31495;-76
2022/02/21 02:14:02;;;;;;;0.52;0.30;;;8.80;1.40;;;9.40;83.00;94297.44;646054;216;31491;-76
2022/02/21 02:16:44;;;;;;;0.80;0.37;;;8.90;1.40;;;9.48;81.77;94279.21;647590;216;31508;-76
2022/02/21 02:19:26;;;;;;;0.40;0.30;;;8.90;1.40;;;9.57;81.14;94278.78;645404;216;42204;-75
2022/02/21 02:22:22;;;;;;;0.80;0.30;;;9.10;1.40;;;9.59;80.54;94260.10;625073;222;31927;-77
2022/02/21 02:25:04;;;;;;;0.40;0.22;;;9.10;1.40;;;9.62;80.07;94242.87;652057;212;31497;-78
2022/02/21 02:27:52;;;;;;;0.40;0.30;;;9.10;1.40;;;9.71;78.92;94234.43;644363;216;31800;-76
2022/02/21 02:30:34;;;;;;;0.40;0.20;;;9.20;1.40;;;9.63;80.63;94220.51;645288;212;31503;-75
2022/02/21 02:35:57;;;;;;;0.40;0.20;;;9.20;1.40;;;9.78;78.73;94215.98;644976;212;31554;-78
2022/02/21 02:38:45;;;;;;;0.70;0.30;;;9.20;1.40;;;9.91;77.12;94204.78;647903;212;31521;-76
2022/02/21 02:41:32;;;;;;;0.40;0.20;;;9.40;1.40;;;9.82;78.04;94183.35;647467;216;32080;-76
2022/02/21 02:44:14;;;;;;;0.70;0.30;;;9.30;1.40;;;9.83;78.07;94197.49;654095;216;31602;-74
2022/02/21 02:46:56;;;;;;;0.90;0.30;;;9.20;1.40;;;9.84;77.55;94191.90;646811;212;31484;-73
2022/02/21 02:49:37;;;;;;;0.40;0.20;;;9.30;1.40;;;9.77;78.10;94175.81;620533;222;31853;-76
2022/02/21 02:52:19;;;;;;;0.40;0.20;;;9.30;1.40;;;9.93;76.56;94178.00;649038;212;31772;-75
2022/02/21 02:55:01;;;;;;;0.40;0.30;;;9.40;1.40;;;9.86;76.92;94191.27;650461;216;31598;-74
2022/02/21 02:57:42;;;;;;;0.40;0.20;;;9.30;1.40;;;9.81;77.60;94158.97;646653;216;31524;-74
2022/02/21 03:00:24;;;;;;;0.80;0.20;;;9.30;1.40;;;9.87;77.29;94179.50;644231;212;31474;-75
2022/02/21 03:03:06;;;;;;;1.40;0.20;;;9.30;1.40;;;9.84;77.69;94173.31;624062;226;31830;-74
2022/02/21 03:05:47;;;;;;;0.40;0.20;;;9.30;1.40;;;9.93;75.85;94151.81;617447;226;32681;-75
2022/02/21 03:08:29;;;;;;;0.70;0.50;;;9.40;1.40;;;9.98;74.85;94139.41;619013;222;31821;-75
2022/02/21 03:11:11;;;;;;;0.50;0.20;;;9.50;1.40;;;10.02;74.81;94169.27;621719;226;31822;-74
2022/02/21 03:13:53;;;;;;;0.40;0.23;;;9.50;1.40;;;10.09;73.83;94166.09;616556;226;32267;-75
2022/02/21 03:16:37;;;;;;;0.60;0.22;;;9.50;1.40;;;10.03;74.68;94143.94;650001;216;31485;-75
2022/02/21 03:19:19;;;;;;;0.60;0.30;;;9.40;1.40;;;10.05;73.61;94163.04;649327;216;31503;-75
2022/02/21 03:22:03;;;;;;;0.50;0.50;;;9.60;1.40;;;10.06;74.44;94138.72;647130;216;31539;-74
2022/02/21 03:24:43;;;;;;;0.50;0.30;;;9.50;1.40;;;10.12;73.83;94140.34;647370;216;31675;-76
2022/02/21 03:27:25;;;;;;;0.70;0.30;;;9.70;1.40;;;10.05;74.33;94081.16;649803;216;31522;-75
2022/02/21 03:30:08;;;;;;;1.20;0.50;;;9.50;1.40;;;10.00;74.82;94070.03;647769;212;31560;-76
2022/02/21 03:32:49;;;;;;;0.50;0.30;;;9.40;1.40;;;10.22;73.01;94114.64;648370;212;31786;-75
2022/02/21 03:35:51;;;;;;;0.50;0.30;;;9.70;1.40;;;10.10;74.40;94073.13;633101;221;42511;-74
2022/02/21 03:38:33;;;;;;;0.40;0.20;;;9.60;1.40;;;10.09;73.87;94087.70;648318;216;31555;-74
2022/02/21 03:41:15;;;;;;;0.40;0.30;;;9.60;1.40;;;10.04;75.01;94084.12;645743;216;31477;-75
2022/02/21 03:43:56;;;;;;;0.60;0.30;;;9.50;1.40;;;9.93;76.08;94091.63;648329;216;31444;-75
2022/02/21 03:46:41;;;;;;;0.40;0.30;;;9.50;1.40;;;10.04;75.41;94116.56;648494;212;31708;-75
2022/02/21 03:49:20;;;;;;;0.40;0.20;;;9.50;1.40;;;10.10;75.23;94110.25;645866;212;31507;-74
2022/02/21 03:53:00;;;;;;;0.90;0.45;;;9.70;1.40;;;10.08;75.70;94116.36;649472;216;31529;-73
2022/02/21 03:55:42;;;;;;;0.40;0.30;;;9.60;1.40;;;9.98;76.98;94093.39;649284;216;31539;-76
2022/02/21 03:58:24;;;;;;;0.50;0.30;;;9.40;1.40;;;9.95;77.68;94101.31;648209;216;31480;-75
2022/02/21 04:01:05;;;;;;;0.68;0.40;;;9.30;1.40;;;9.84;78.37;94091.50;640252;220;31530;-76
2022/02/21 04:06:21;;;;;;;0.40;0.30;;;9.30;1.40;;;9.89;79.81;94098.00;643819;216;32185;-73
2022/02/21 04:09:03;;;;;;;0.47;0.30;;;9.30;1.40;;;9.81;80.73;94090.81;646752;212;31597;-73
2022/02/21 04:11:49;;;;;;;0.40;0.20;;;9.20;1.40;;;9.71;82.34;94084.84;619834;225;31862;-76
2022/02/21 04:14:29;;;;;;;0.40;0.20;;;9.10;1.40;;;9.60;83.58;94126.92;617896;226;31819;-74
2022/02/21 04:17:14;;;;;;;0.40;0.23;;;9.10;1.40;;;9.56;84.21;94104.30;648767;216;31522;-74
2022/02/21 04:19:56;;;;;;;0.40;0.20;;;9.00;1.40;;;9.43;85.35;94100.36;647770;212;32161;-75
2022/02/21 04:22:38;;;;;;;0.70;0.30;;;8.90;1.40;;;9.25;87.34;94115.33;644610;212;31700;-76
2022/02/21 04:25:19;;;;;;;0.40;0.30;;;8.60;1.40;;;9.27;88.16;94098.08;650086;216;31475;-74
2022/02/21 04:28:01;;;;;;;0.40;0.20;;;8.70;1.40;;;9.22;89.04;94107.42;649330;212;31477;-75
2022/02/21 04:30:43;;;;;;;0.60;0.20;;;8.70;1.40;;;9.12;90.99;94094.03;646342;212;31493;-74
2022/02/21 04:35:52;;;;;;;0.40;0.30;;;8.50;1.40;;;9.10;91.85;94076.43;645877;216;32077;-75
2022/02/21 04:38:33;;;;;;;1.10;0.40;;;8.50;1.40;;;9.00;93.40;94070.72;648062;216;31895;-75
2022/02/21 04:41:15;;;;;;;0.40;0.20;;;8.50;1.40;;;8.97;94.11;94069.70;649809;216;31641;-75
2022/02/21 04:43:57;;;;;;;0.40;0.20;;;8.40;1.40;;;8.90;95.50;94062.56;652672;216;31502;-76
2022/02/21 04:46:39;;;;;;;0.40;0.20;;;8.40;1.40;;;8.80;96.72;94053.92;642738;220;31490;-75
2022/02/21 04:49:20;;;;;;;0.50;0.30;;;8.30;1.40;;;8.69;97.35;94042.80;651419;212;31521;-75
2022/02/21 04:52:02;;;;;;;0.40;0.20;;;8.20;1.40;;;8.64;98.40;94037.41;648455;216;31547;-76
2022/02/21 04:54:44;;;;;;;0.40;0.20;;;8.10;1.40;;;8.61;99.02;94020.86;651731;216;31501;-75
2022/02/21 04:57:25;;;;;;;0.40;0.30;;;8.10;1.40;;;8.52;100.00;94040.34;617164;224;31803;-75
2022/02/21 05:00:08;;;;;;;1.20;0.30;;;7.90;1.40;;;8.38;100.00;94061.63;649488;216;31485;-73
2022/02/21 05:02:53;;;;;;;0.40;0.20;;;7.90;1.40;;;8.31;100.00;94042.33;647179;216;31590;-74
2022/02/21 05:05:35;;;;;;;0.90;0.40;;;7.70;1.40;;;8.27;100.00;94026.42;644802;212;31514;-75
2022/02/21 05:08:16;;;;;;;0.40;0.20;;;7.80;1.40;;;8.22;100.00;94030.02;652743;216;31480;-73
2022/02/21 05:10:58;;;;;;;0.50;0.30;;;7.80;1.40;;;8.24;100.00;94019.31;648651;216;31566;-75
2022/02/21 05:13:40;;;;;;;0.40;0.20;;;7.60;1.40;;;8.31;100.00;94003.33;645857;216;31558;-75
2022/02/21 05:16:21;;;;;;;0.40;0.20;;;7.80;1.40;;;8.27;100.00;93998.31;648034;212;32123;-74
2022/02/21 05:19:03;;;;;;;0.60;0.20;;;7.70;1.40;;;8.15;100.00;94001.89;651092;216;31460;-76
2022/02/21 05:21:48;;;;;;;0.40;0.40;;;7.50;1.40;;;8.19;100.00;93994.01;645656;216;31508;-75
2022/02/21 05:24:31;;;;;;;0.40;0.20;;;7.60;1.40;;;8.19;100.00;93983.11;646372;212;31671;-74
2022/02/21 05:27:12;;;;;;;0.40;0.20;;;7.70;1.40;;;8.31;100.00;93996.71;650106;216;31788;-74
2022/02/21 05:29:53;;;;;;;0.50;0.20;;;7.80;1.40;;;8.19;100.00;94007.55;646595;216;42125;-73
2022/02/21 05:32:38;;;;;;;0.40;0.20;;;7.70;1.40;;;8.44;100.00;94046.41;648895;216;31520;-72
2022/02/21 05:35:51;;;;;;;0.60;0.30;;;8.00;1.40;;;8.37;100.00;94026.84;649224;216;31498;-75
2022/02/21 05:38:32;;;;;;;0.43;0.30;;;8.00;1.40;;;8.42;100.00;94023.61;649085;212;31500;-73
2022/02/21 05:41:14;;;;;;;0.40;0.20;;;8.00;1.40;;;8.48;100.00;94041.17;644875;216;31558;-74
2022/02/21 05:43:56;;;;;;;0.40;0.20;;;8.00;1.40;;;8.48;100.00;94033.34;650906;216;32001;-75
2022/02/21 05:46:38;;;;;;;0.40;0.20;;;8.00;1.40;;;8.60;100.00;94056.01;632132;222;31881;-73
2022/02/21 05:49:19;;;;;;;0.40;0.20;;;8.20;1.40;;;8.61;100.00;94050.61;647685;216;42111;-75
2022/02/21 05:52:01;;;;;;;0.40;0.20;;;8.10;1.40;;;8.64;100.00;94073.23;647643;212;31494;-74
2022/02/21 05:54:43;;;;;;;0.40;0.20;;;8.20;1.40;;;8.46;100.00;94108.50;643437;219;31461;-74
2022/02/21 05:57:24;;;;;;;0.40;0.20;;;8.00;1.40;;;7.37;100.00;94167.03;645781;216;32062;-78
2022/02/21 06:00:09;;;;;;;0.40;0.20;;;6.00;1.40;;;4.36;100.00;94252.67;618880;226;32158;-71
2022/02/21 06:02:53;;;;;;;0.40;0.20;;;3.50;1.40;;;3.08;100.00;94223.94;644800;216;31613;-71
2022/02/21 06:05:35;;;;;;;0.40;0.30;;;2.20;1.40;;;2.05;100.00;94242.75;649731;216;31501;-72
2022/02/21 06:08:16;;;;;;;0.40;0.25;;;1.00;1.40;;;1.53;100.00;94261.56;632513;216;31665;-71
2022/02/21 06:10:58;;;;;;;0.40;0.30;;;0.80;1.40;;;1.36;100.00;94264.90;647362;212;42564;-72
2022/02/21 06:13:40;;;;;;;0.40;0.20;;;0.70;1.40;;;1.28;100.00;94276.02;645598;216;32014;-70
2022/02/21 06:16:22;;;;;;;0.40;0.30;;;0.70;1.40;;;1.25;100.00;94288.16;645224;216;31512;-72
2022/02/21 06:19:03;;;;;;;0.40;0.30;;;0.70;1.40;;;1.17;100.00;94291.08;648530;216;31489;-73
2022/02/21 06:21:45;;;;;;;0.40;0.20;;;0.60;1.40;;;1.13;100.00;94306.80;647666;212;31512;-72
2022/02/21 06:24:33;;;;;;;0.40;0.30;;;0.60;1.40;;;1.11;100.00;94262.58;651407;216;31549;-75
2022/02/21 06:27:20;;;;;;;0.40;0.30;;;0.60;1.40;;;1.09;100.00;94310.25;651316;216;31499;-72
2022/02/21 06:30:02;;;;;;;;;;;0.60;1.40;;;1.13;100.00;94302.63;657317;216;24821;-70
2022/02/21 06:32:43;;;;;;;;;;;0.60;1.40;;;1.11;100.00;94312.86;654761;212;24718;-73
2022/02/21 06:35:50;;;;;;;;;;;0.60;1.40;;;1.13;100.00;94307.54;653305;212;24818;-71
2022/02/21 06:38:37;;;;;;;;;;;0.50;1.40;;;1.15;100.00;94319.17;651754;216;24815;-71
2022/02/21 06:41:16;;;;;;;;;;;0.60;1.40;;;1.16;100.00;94324.39;654567;212;25266;-71
2022/02/21 06:44:00;;;;;;;;;;;0.60;1.40;;;1.21;100.00;94323.09;656336;212;24811;-73
2022/02/21 06:46:42;;;;;;;;;;;0.60;1.40;;;1.20;100.00;94322.94;649193;217;24725;-71
2022/02/21 06:49:23;;;;;;;;;;;0.60;1.40;;;1.19;100.00;94314.39;650228;215;24811;-71
2022/02/21 06:52:05;;;;;;;;;;;0.70;1.40;;;1.20;100.00;94315.72;652826;216;24891;-72
2022/02/21 06:54:55;;;;;;;;;;;0.70;1.40;;;1.24;100.00;94329.43;656448;216;24820;-74
2022/02/21 06:57:37;;;;;;;;;;;0.80;1.40;;;1.23;100.00;94310.11;647752;219;24723;-75
2022/02/21 07:00:18;;;;;;;;;;;0.90;1.40;;;1.23;100.00;94321.74;653138;216;24816;-74
2022/02/21 07:03:06;;;;;;;;;;;0.90;1.40;;;1.26;100.00;94330.27;653449;216;24823;-71
2022/02/21 07:05:47;;;;;;;;;;;0.90;1.40;;;1.24;100.00;94330.34;655131;212;24815;-72
2022/02/21 07:08:28;;;;;;;;;;;0.90;1.40;;;1.19;100.00;94336.81;653762;216;25147;-73
2022/02/21 07:11:11;;;;;;;;;;;0.90;1.40;;;1.18;100.00;94353.31;648844;215;24964;-75
2022/02/21 07:13:53;;;;;;;;;;;0.90;1.40;;;1.24;100.00;94356.49;654807;216;24826;-74
2022/02/21 07:16:40;;;;;;;;;;;0.90;1.40;;;1.26;100.00;94356.55;657091;212;24828;-73
2022/02/21 07:19:28;;;;;;;;;;;1.00;1.40;;;1.26;100.00;94374.38;654665;216;24713;-75
2022/02/21 07:22:15;;;;;;;;;;;1.00;1.40;;;1.32;100.00;94383.66;652281;216;24807;-74
2022/02/21 07:25:03;;;;;;;;;;;1.10;1.40;;;1.42;100.00;94384.42;651703;216;24960;-76
2022/02/21 07:27:45;;;;;;;;;;;1.30;1.40;;;1.49;100.00;94379.14;654178;216;24833;-74
2022/02/21 07:30:30;;;;;;;;;;;1.40;1.40;;;1.50;100.00;94416.63;654185;212;25276;-76
2022/02/21 07:35:51;;;;;;;;;;;1.40;1.40;;;1.56;100.00;94456.02;622441;226;25629;-72
2022/02/21 07:38:32;;;;;;;;;;;1.50;1.40;;;1.55;100.00;94444.05;653006;216;24814;-74
2022/02/21 07:41:13;;;;;;;;;;;1.40;1.40;;;1.52;100.00;94441.08;650312;212;24821;-74
2022/02/21 07:43:55;;;;;;;;;;;1.40;1.40;;;1.51;100.00;94395.09;653281;216;24820;-73
2022/02/21 07:46:36;;;;;;;;;;;1.40;1.40;;;1.55;100.00;94402.93;658341;216;24815;-72
2022/02/21 07:49:17;;;;;;;;;;;1.40;1.40;;;1.57;100.00;94444.84;651759;212;25305;-71
2022/02/21 07:51:59;;;;;;;;;;;1.40;1.40;;;1.60;100.00;94481.59;657943;216;24823;-72
2022/02/21 07:54:40;;;;;;;;;;;1.40;1.40;;;1.69;100.00;94491.05;656016;212;24722;-71
2022/02/21 07:57:21;;;;;;;;;;;1.50;1.40;;;1.73;100.00;94488.84;653296;216;24830;-72
2022/02/21 08:00:06;;;;;;;;;;;1.60;1.40;;;1.77;100.00;94466.97;651440;216;24893;-74
2022/02/21 08:02:48;;;;;;;;;;;1.60;1.40;;;1.85;100.00;94435.99;654641;216;24818;-72
2022/02/21 08:05:29;;;;;;;;;;;1.70;1.40;;;1.95;100.00;94462.48;652821;212;24899;-72
2022/02/21 08:08:10;;;;;;;;;;;1.80;1.40;;;2.03;100.00;94470.72;657772;212;24807;-74
2022/02/21 08:10:52;;;;;;;;;;;1.80;1.40;;;2.08;100.00;94510.77;649095;215;25145;-71
2022/02/21 08:13:33;;;;;;;;;;;1.90;1.40;;;2.11;100.00;94537.64;651414;212;24962;-72
2022/02/21 08:16:14;;;;;;;;;;;1.90;1.40;;;2.08;100.00;94528.78;657025;216;24799;-73
2022/02/21 08:18:56;;;;;;;;;;;1.90;1.40;;;2.18;100.00;94560.55;651039;216;24834;-72
2022/02/21 08:21:37;;;;;;;;;;;1.90;1.40;;;2.18;100.00;94614.13;651622;216;24846;-72
2022/02/21 08:24:18;;;;;;;;;;;1.90;1.40;;;2.17;100.00;94639.16;654537;216;25260;-72
2022/02/21 08:27:00;;;;;;;;;;;2.00;1.40;;;2.18;100.00;94655.62;653326;216;24819;-73
2022/02/21 08:29:41;;;;;;;;;;;2.00;1.40;;;2.28;100.00;94643.59;655179;216;24816;-72
2022/02/21 08:32:22;;;;;;;;;;;2.10;1.40;;;2.32;100.00;94644.91;648977;215;25414;-72
2022/02/21 08:35:51;;;;;;;;;;;2.20;1.40;;;2.47;100.00;94643.59;650472;216;24724;-74
2022/02/21 08:38:35;;;;;;;;;;;2.40;1.40;;;2.51;100.00;94636.09;654198;216;25443;-72
2022/02/21 08:41:17;;;;;;;;;;;2.40;1.40;;;2.58;100.00;94626.11;654616;216;24829;-72
2022/02/21 08:44:01;;;;;;;;;;;2.40;1.40;;;2.66;100.00;94625.40;652171;216;24823;-73
2022/02/21 08:46:42;;;;;;;;;;;2.60;1.40;;;2.76;100.00;94639.80;654111;216;24827;-73
2022/02/21 08:49:23;;;;;;;;;;;2.70;1.40;;;2.85;100.00;94670.19;657449;216;25266;-74
2022/02/21 08:52:05;;;;;;;;;;;2.80;1.40;;;2.97;100.00;94680.88;647063;216;24722;-73
2022/02/21 08:54:46;;;;;;;;;;;2.90;1.40;;;3.09;100.00;94673.88;655657;216;24738;-73
2022/02/21 08:57:27;;;;;;;;;;;3.00;1.40;;;3.26;100.00;94653.56;653753;212;25031;-72
2022/02/21 09:00:12;;;;;;;;;;;3.00;1.40;;;3.24;100.00;94651.27;653317;216;25348;-75
2022/02/21 09:02:54;;;;;;;;;;;3.00;1.40;;;3.09;100.00;94655.41;654102;212;24836;-73
2022/02/21 09:05:35;;;;;;;;;;;2.80;1.40;;;3.10;100.00;94682.39;652364;216;24916;-73
2022/02/21 09:08:16;;;;;;;;;;;2.80;1.40;;;3.14;100.00;94672.58;640497;216;24754;-71
2022/02/21 09:11:02;;;;;;;;;;;2.90;1.40;;;3.20;100.00;94686.38;658632;212;24838;-71
2022/02/21 09:13:42;;;;;;;;;;;3.00;1.40;;;3.18;100.00;94677.77;654166;216;24820;-72
2022/02/21 09:16:23;;;;;;;;;;;2.90;1.40;;;3.10;100.00;94673.40;657494;216;25121;-72
2022/02/21 09:19:05;;;;;;;;;;;2.90;1.40;;;3.11;100.00;94682.33;653163;216;24813;-72
2022/02/21 09:21:46;;;;;;;;;;;2.90;1.40;;;3.01;100.00;94669.06;655276;216;24706;-71
2022/02/21 09:24:30;;;;;;;;;;;2.70;1.40;;;3.08;100.00;94654.08;654294;216;25463;-72
2022/02/21 09:27:12;;;;;;;;;;;3.00;1.40;;;3.36;100.00;94650.20;622394;227;24788;-71
2022/02/21 09:29:53;;;;;;;;;;;3.30;1.40;;;3.79;100.00;94661.44;653023;216;25558;-71
2022/02/21 09:32:34;;;;;;;;;;;3.80;1.40;;;3.83;100.00;94673.52;655905;216;24820;-71
2022/02/21 09:35:54;;;;;;;0.40;0.40;;;3.60;1.40;;;3.71;100.00;94673.16;645904;216;31804;-73
2022/02/21 09:38:36;;;;;;;0.70;0.50;;;3.50;1.40;;;3.49;100.00;94678.98;645107;216;31531;-71
2022/02/21 09:41:18;;;;;;;0.40;0.30;;;3.30;1.40;;;3.39;100.00;94687.20;649890;216;32337;-72
2022/02/21 09:43:59;;;;;;;0.40;0.30;;;3.20;1.40;;;3.36;100.00;94690.75;645083;216;32037;-72
2022/02/21 09:46:49;;;;;;;0.60;0.32;;;3.30;1.40;;;3.60;100.00;94709.42;648595;212;31669;-76
2022/02/21 09:49:33;;;;;;;0.40;0.30;;;3.40;1.40;;;3.65;100.00;94706.77;649203;212;31532;-72
2022/02/21 09:52:15;;;;;;;0.90;0.40;;;3.50;1.40;;;3.63;100.00;94688.77;646163;216;31515;-71
2022/02/21 09:54:59;;;;;;;0.40;0.40;;;3.40;1.40;;;3.60;100.00;94697.31;618870;222;31855;-72
2022/02/21 09:57:38;;;;;;;0.40;0.40;;;3.40;1.40;;;3.66;100.00;94693.52;645560;212;31818;-71
2022/02/21 10:00:20;;;;;;;1.00;0.50;;;3.50;1.40;;;3.88;100.00;94674.06;647022;212;31931;-73
2022/02/21 10:03:01;;;;;;;0.50;0.30;;;3.80;1.40;;;4.20;100.00;94673.33;645222;216;31718;-72
2022/02/21 10:05:48;;;;;;;0.40;0.30;;;4.30;1.40;;;4.20;100.00;94655.84;646086;216;31604;-75
2022/02/21 10:08:33;;;;;;;0.80;0.40;;;4.10;1.40;;;4.54;100.00;94656.92;634361;216;31976;-71
2022/02/21 10:11:16;;;;;;;3.50;0.60;;;4.70;1.40;;;5.41;100.00;94661.81;647872;216;31630;-73
2022/02/21 10:13:57;;;;;;;0.40;0.30;;;6.40;1.40;;;6.93;100.00;94680.19;646699;216;31801;-72
2022/02/21 10:16:47;;;;;;;1.65;0.50;;;7.80;1.40;;;8.37;100.00;94645.14;646163;212;31600;-73
2022/02/21 10:19:30;;;;;;;0.40;0.40;;;9.40;1.40;;;8.03;100.00;94649.16;646253;212;42717;-73
2022/02/21 10:22:14;;;;;;;1.48;0.60;;;8.30;1.40;;;7.83;95.02;94657.18;620288;222;42389;-76
2022/02/21 10:25:00;;;;;;;0.60;0.50;;;7.30;1.40;;;7.70;96.64;94648.13;618851;226;31995;-72
2022/02/21 10:27:42;;;;;;;2.53;0.50;;;8.20;1.40;;;8.07;95.40;94654.41;646408;216;31512;-72
2022/02/21 10:30:24;;;;;;;1.20;0.30;;;8.40;1.40;;;8.54;89.05;94641.02;648889;216;31647;-73
2022/02/21 10:35:57;;;;;;;0.60;0.40;;;8.70;1.40;;;8.22;92.46;94642.08;646700;212;31536;-72
2022/02/21 10:38:40;;;;;;;0.80;0.40;;;8.60;1.40;;;7.84;88.75;94638.91;646028;216;31535;-73
2022/02/21 10:41:22;;;;;;;0.60;0.40;;;7.60;1.40;;;6.87;95.85;94653.17;646693;216;31493;-73
2022/02/21 10:44:26;;;;;;;0.40;0.30;;;5.90;1.40;;;6.91;100.00;94632.16;646416;216;31491;-77
2022/02/21 10:49:53;;;;;;;0.80;0.45;;;5.40;1.40;;;5.74;100.00;94663.33;646420;212;31548;-72
2022/02/21 10:52:38;;;;;;;1.90;0.60;;;5.30;1.40;;;5.30;100.00;94657.37;645534;216;32248;-76
2022/02/21 10:55:20;;;;;;;0.50;0.30;;;4.90;1.40;;;5.07;100.00;94646.30;646579;216;31514;-72
2022/02/21 10:58:18;;;;;;;0.50;0.30;;;4.70;1.40;;;5.10;100.00;94681.77;646654;212;31517;-74
2022/02/21 11:01:00;;;;;;;0.40;0.20;;;4.70;1.40;;;5.02;100.00;94664.87;646184;216;33035;-73
2022/02/21 11:03:40;;;;;;;2.60;0.60;;;4.60;1.40;;;4.75;100.00;94654.34;646495;216;31588;-74
2022/02/21 11:06:22;;;;;;;0.40;0.30;;;4.40;1.40;;;5.05;100.00;94631.02;644767;216;31502;-73
2022/02/21 11:09:04;;;;;;;0.80;0.40;;;4.90;1.40;;;5.42;100.00;94631.22;645983;212;31502;-73
2022/02/21 11:11:48;;;;;;;0.70;0.40;;;5.60;1.40;;;5.77;100.00;94627.44;646154;212;32140;-72
2022/02/21 11:14:30;;;;;;;2.53;0.60;;;5.30;1.40;;;5.56;100.00;94630.24;645155;216;31534;-73
2022/02/21 11:17:18;;;;;;;1.30;0.60;;;5.20;1.40;;;5.91;100.00;94616.67;646267;216;31498;-77
2022/02/21 11:20:07;;;;;;;0.40;0.30;;;5.50;1.40;;;5.53;100.00;94609.06;645767;216;31532;-73
2022/02/21 11:22:48;;;;;;;1.60;0.60;;;5.10;1.40;;;5.41;100.00;94631.50;646479;212;31670;-74
2022/02/21 11:25:47;;;;;;;1.70;0.40;;;4.90;1.40;;;5.23;100.00;94633.04;617544;226;31824;-73
2022/02/21 11:28:49;;;;;;;0.90;0.50;;;4.70;1.40;;;5.37;100.00;94647.78;646214;212;32404;-73
2022/02/21 11:31:30;;;;;;;0.40;0.30;;;5.00;1.40;;;7.12;100.00;94635.28;646765;212;31544;-74
2022/02/21 11:36:07;;;;;;;0.70;0.30;;;8.80;1.40;;;9.46;86.58;94596.39;646161;212;31542;-76
2022/02/21 11:38:49;;;;;;;1.80;0.40;;;9.40;1.40;;;9.47;82.15;94604.09;646078;216;31482;-74
2022/02/21 11:41:31;;;;;;;2.00;0.50;;;9.10;1.40;;;10.31;83.02;94590.13;646444;216;31517;-75
2022/02/21 11:44:21;;;;;;;0.50;0.20;;;10.90;1.40;;;9.81;77.86;94601.77;646304;212;31588;-74
2022/02/21 11:47:08;;;;;;;0.67;0.40;;;9.30;1.40;;;9.97;78.79;94586.91;619108;226;42668;-75
2022/02/21 11:49:56;;;;;;;0.57;0.40;;;10.00;1.40;;;10.00;77.92;94577.22;619072;225;32046;-74
2022/02/21 11:52:38;;;;;;;1.10;0.30;;;9.90;1.40;;;10.15;74.37;94545.32;646371;216;31523;-72
2022/02/21 11:55:40;;;;;;;1.60;0.50;;;8.90;1.40;;;9.04;76.86;94603.19;645735;216;31558;-76
2022/02/21 11:58:45;;;;;;;2.30;0.50;;;8.10;1.40;;;9.21;78.49;94566.57;646993;216;31623;-74
2022/02/21 12:01:23;;;;;;;1.30;0.63;;;9.10;1.40;;;8.43;77.44;94561.41;646331;216;31509;-76
2022/02/21 12:06:52;;;;;;;0.40;0.30;;;6.50;1.40;;;7.98;84.52;94562.42;646594;216;31729;-76
2022/02/21 12:09:33;;;;;;;0.70;0.40;;;8.80;1.40;;;9.41;77.28;94551.91;646264;212;31494;-75
2022/02/21 12:12:21;;;;;;;1.00;0.50;;;8.70;1.40;;;7.93;83.28;94572.00;645364;212;31507;-73
2022/02/21 12:15:11;;;;;;;1.70;0.60;;;8.50;1.40;;;7.66;84.32;94584.06;619912;222;31816;-77
2022/02/21 12:18:03;;;;;;;0.70;0.50;;;6.60;1.40;;;6.84;93.04;94572.14;645561;216;32360;-75
2022/02/21 12:20:45;;;;;;;0.60;0.50;;;6.80;1.40;;;7.72;87.10;94580.03;646381;216;31600;-73
2022/02/21 12:23:32;;;;;;;0.40;0.30;;;7.90;1.40;;;8.71;84.71;94557.89;646580;216;31609;-77
2022/02/21 12:26:20;;;;;;;0.40;0.30;;;7.70;1.40;;;7.25;86.66;94561.75;645858;216;31671;-73
2022/02/21 12:29:15;;;;;;;1.10;0.60;;;6.40;1.40;;;6.91;93.58;94569.38;646069;216;31541;-77